createdAt,value
2022-09-25T00:03:16.872Z,97304.41
2022-09-25T00:07:20.369Z,97298.34
2022-09-25T00:11:25.488Z,97300.78
2022-09-25T00:15:29.329Z,97301.59
2022-09-25T00:19:52.863Z,97304.81
2022-09-25T00:23:55.876Z,97300.38
2022-09-25T00:27:59.434Z,97288.09
2022-09-25T00:32:03.243Z,97279.22
2022-09-25T00:36:10.450Z,97286.69
2022-09-25T00:40:14.173Z,97285.69
2022-09-25T00:44:56.998Z,97290.56
2022-09-25T00:49:03.532Z,97292.78
2022-09-25T00:53:14.626Z,97279.28
2022-09-25T00:57:27.476Z,97271.22
2022-09-25T01:01:31.273Z,97277.88
2022-09-25T01:05:37.756Z,97275.47
2022-09-25T01:09:43.031Z,97272.47
2022-09-25T01:13:46.130Z,97271.28
2022-09-25T01:18:00.786Z,97267.47
2022-09-25T01:22:13.148Z,97261.19
2022-09-25T01:26:32.279Z,97276.94
2022-09-25T01:30:43.375Z,97270.66
2022-09-25T01:34:54.901Z,97270.91
2022-09-25T01:39:05.741Z,97277.75
2022-09-25T01:43:14.456Z,97278.97
2022-09-25T01:47:25.263Z,97267.84
2022-09-25T01:51:33.890Z,97261.00
2022-09-25T01:55:41.984Z,97255.13
2022-09-25T01:59:48.812Z,97248.47
2022-09-25T02:04:01.230Z,97250.88
2022-09-25T02:08:09.409Z,97245.03
2022-09-25T02:12:16.846Z,97246.84
2022-09-25T02:16:24.394Z,97248.03
2022-09-25T02:20:34.559Z,97237.72
2022-09-25T02:24:45.969Z,97239.75
2022-09-25T02:28:53.913Z,97239.97
2022-09-25T02:32:58.620Z,97241.13
2022-09-25T02:37:03.478Z,97240.53
2022-09-25T02:41:18.587Z,97237.09
2022-09-25T02:45:35.555Z,97245.16
2022-09-25T02:49:49.413Z,97233.06
2022-09-25T02:54:01.766Z,97247.38
2022-09-25T02:58:10.783Z,97248.34
2022-09-25T03:02:16.618Z,97240.91
2022-09-25T03:06:20.862Z,97240.28
2022-09-25T03:10:28.435Z,97238.69
2022-09-25T03:14:31.597Z,97237.03
2022-09-25T03:18:35.832Z,97241.28
2022-09-25T03:22:38.937Z,97243.91
2022-09-25T03:26:44.431Z,97231.00
2022-09-25T03:30:58.427Z,97219.88
2022-09-25T03:35:02.374Z,97216.88
2022-09-25T03:39:06.249Z,97219.25
2022-09-25T03:47:14.000Z,97204.28
2022-09-25T03:51:17.859Z,97205.84
2022-09-25T03:55:22.528Z,97211.47
2022-09-25T03:59:27.526Z,97215.09
2022-09-25T04:08:15.900Z,97167.72
2022-09-25T04:12:37.076Z,97196.91
2022-09-25T04:16:42.368Z,97171.81
2022-09-25T04:25:12.226Z,97219.56
2022-09-25T04:29:18.298Z,97168.56
2022-09-25T04:34:11.631Z,97136.22
2022-09-25T04:38:16.893Z,97155.25
2022-09-25T04:47:17.787Z,97216.91
2022-09-25T04:51:22.696Z,97195.41
2022-09-25T05:00:44.667Z,97188.09
2022-09-25T05:04:48.482Z,97234.44
2022-09-25T05:08:51.900Z,97238.84
2022-09-25T05:12:58.731Z,97235.06
2022-09-25T05:17:03.324Z,97236.03
2022-09-25T05:21:07.132Z,97234.88
2022-09-25T05:25:10.955Z,97219.94
2022-09-25T05:29:15.891Z,97211.69
2022-09-25T05:33:19.311Z,97210.66
2022-09-25T05:37:22.805Z,97219.75
2022-09-25T05:41:26.684Z,97210.91
2022-09-25T05:45:31.585Z,97213.56
2022-09-25T05:49:34.689Z,97217.19
2022-09-25T05:53:38.733Z,97221.47
2022-09-25T05:57:41.745Z,97225.94
2022-09-25T06:01:46.719Z,97231.03
2022-09-25T06:05:50.201Z,97232.28
2022-09-25T06:09:54.022Z,97217.19
2022-09-25T06:13:57.877Z,97220.84
2022-09-25T06:18:03.347Z,97216.44
2022-09-25T06:22:06.591Z,97216.06
2022-09-25T06:26:11.111Z,97219.94
2022-09-25T06:30:14.488Z,97209.69
2022-09-25T06:34:19.460Z,97203.63
2022-09-25T06:38:23.026Z,97199.38
2022-09-25T06:42:26.082Z,97200.59
2022-09-25T06:46:29.278Z,97203.81
2022-09-25T06:50:40.785Z,97207.03
2022-09-25T06:54:44.422Z,97207.47
2022-09-25T06:58:47.744Z,97212.31
2022-09-25T07:03:07.981Z,97214.91
2022-09-25T07:07:14.222Z,97224.38
2022-09-25T07:11:19.392Z,97225.59
2022-09-25T07:15:24.446Z,97220.63
2022-09-25T07:19:27.943Z,97218.84
2022-09-25T07:23:34.121Z,97208.19
2022-09-25T07:27:37.228Z,97202.41
2022-09-25T07:31:40.844Z,97207.47
2022-09-25T07:35:44.097Z,97210.22
2022-09-25T07:39:48.985Z,97209.88
2022-09-25T07:44:06.243Z,97203.09
2022-09-25T07:48:15.306Z,97196.28
2022-09-25T07:52:18.930Z,97189.28
2022-09-25T07:56:23.707Z,97193.19
2022-09-25T08:00:27.320Z,97178.81
2022-09-25T08:04:30.935Z,97191.13
2022-09-25T08:08:35.520Z,97203.56
2022-09-25T08:12:41.590Z,97201.91
2022-09-25T08:16:45.569Z,97202.25
2022-09-25T08:20:48.651Z,97209.38
2022-09-25T08:24:51.705Z,97213.19
2022-09-25T08:28:57.508Z,97217.28
2022-09-25T08:33:00.570Z,97220.53
2022-09-25T08:37:03.706Z,97214.88
2022-09-25T08:41:11.782Z,97202.22
2022-09-25T08:45:42.835Z,97193.38
2022-09-25T08:49:51.109Z,97197.19
2022-09-25T08:53:54.616Z,97197.06
2022-09-25T08:57:58.200Z,97197.28
2022-09-25T09:02:12.341Z,97190.59
2022-09-25T09:06:18.601Z,97173.75
2022-09-25T09:10:29.875Z,97163.41
2022-09-25T09:14:40.417Z,97161.81
2022-09-25T09:18:45.656Z,97165.63
2022-09-25T09:22:53.452Z,97153.47
2022-09-25T09:27:16.497Z,97167.34
2022-09-25T09:31:28.033Z,97159.28
2022-09-25T09:35:44.758Z,97160.06
2022-09-25T09:39:55.468Z,97168.16
2022-09-25T09:44:19.789Z,97159.97
2022-09-25T09:48:30.618Z,97152.53
2022-09-25T09:52:40.254Z,97150.88
2022-09-25T09:56:46.340Z,97144.81
2022-09-25T10:00:50.554Z,97151.53
2022-09-25T10:04:57.322Z,97140.56
2022-09-25T10:09:01.711Z,97150.09
2022-09-25T10:13:08.010Z,97139.91
2022-09-25T10:17:13.605Z,97136.59
2022-09-25T10:21:21.856Z,97121.28
2022-09-25T10:25:38.942Z,97126.75
2022-09-25T10:29:42.435Z,97115.84
2022-09-25T10:34:01.319Z,97105.50
2022-09-25T10:38:06.504Z,97099.91
2022-09-25T10:42:36.553Z,97092.75
2022-09-25T10:46:57.993Z,97089.56
2022-09-25T10:51:09.104Z,97072.97
2022-09-25T10:55:22.872Z,97086.28
2022-09-25T10:59:28.358Z,97086.78
2022-09-25T11:03:34.818Z,97088.81
2022-09-25T11:07:38.784Z,97084.00
2022-09-25T11:11:42.958Z,97089.28
2022-09-25T11:15:54.021Z,97092.47
2022-09-25T11:20:16.846Z,97087.97
2022-09-25T11:24:25.724Z,97074.63
2022-09-25T11:28:33.333Z,97071.09
2022-09-25T11:32:52.669Z,97069.91
2022-09-25T11:37:04.690Z,97072.13
2022-09-25T11:41:21.000Z,97065.13
2022-09-25T11:45:31.093Z,97065.09
2022-09-25T11:49:38.603Z,97063.31
2022-09-25T11:53:50.479Z,97055.47
2022-09-25T11:58:06.439Z,97055.41
2022-09-25T12:02:22.921Z,97056.06
2022-09-25T12:06:45.312Z,97054.03
2022-09-25T12:10:58.895Z,97054.31
2022-09-25T12:15:12.733Z,97052.69
2022-09-25T12:19:35.393Z,97042.03
2022-09-25T12:23:43.486Z,97033.53
2022-09-25T12:27:54.111Z,97028.97
2022-09-25T12:32:06.200Z,97018.56
2022-09-25T12:36:15.306Z,97023.91
2022-09-25T12:40:27.764Z,97015.66
2022-09-25T12:44:44.277Z,97014.84
2022-09-25T12:48:52.034Z,97010.81
2022-09-25T12:53:00.547Z,97003.91
2022-09-25T12:57:15.332Z,97011.03
2022-09-25T13:01:25.115Z,97015.81
2022-09-25T13:05:34.906Z,97007.56
2022-09-25T13:09:44.202Z,97005.66
2022-09-25T13:13:53.847Z,96993.94
2022-09-25T13:17:59.662Z,96992.34
2022-09-25T13:22:05.886Z,96992.31
2022-09-25T13:26:14.696Z,96993.94
2022-09-25T13:30:25.446Z,96972.88
2022-09-25T13:34:28.706Z,96976.34
2022-09-25T13:38:49.889Z,96963.03
2022-09-25T13:42:53.439Z,96965.91
2022-09-25T13:47:55.856Z,96973.03
2022-09-25T13:51:59.322Z,96969.25
2022-09-25T13:56:25.125Z,96970.06
2022-09-25T14:00:34.497Z,96968.69
2022-09-25T14:04:41.385Z,96954.84
2022-09-25T14:08:46.176Z,96958.28
2022-09-25T14:12:50.924Z,96961.75
2022-09-25T14:16:59.040Z,96957.50
2022-09-25T14:21:07.001Z,96965.47
2022-09-25T14:25:26.015Z,96952.94
2022-09-25T14:29:34.049Z,96948.72
2022-09-25T14:33:53.921Z,96941.53
2022-09-25T14:38:14.184Z,96938.31
2022-09-25T14:43:06.448Z,96942.22
2022-09-25T14:47:11.827Z,96930.88
2022-09-25T14:51:25.416Z,96917.69
2022-09-25T14:55:36.031Z,96919.63
2022-09-25T14:59:43.469Z,96919.75
2022-09-25T15:03:50.058Z,96930.53
2022-09-25T15:07:53.793Z,96913.22
2022-09-25T15:11:58.472Z,96909.22
2022-09-25T15:16:26.027Z,96909.72
2022-09-25T15:20:31.903Z,96906.22
2022-09-25T15:24:36.941Z,96905.81
2022-09-25T15:28:43.145Z,96905.66
2022-09-25T15:32:51.110Z,96914.97
2022-09-25T15:36:55.356Z,96902.00
2022-09-25T15:40:59.906Z,96915.56
2022-09-25T15:45:38.738Z,96926.25
2022-09-25T15:49:44.301Z,96917.72
2022-09-25T15:53:53.735Z,96928.09
2022-09-25T15:58:06.677Z,96925.22
2022-09-25T16:02:39.987Z,96925.31
2022-09-25T16:06:45.643Z,96926.41
2022-09-25T16:10:50.309Z,96927.50
2022-09-25T16:14:55.231Z,96924.91
2022-09-25T16:19:02.218Z,96919.91
2022-09-25T16:23:08.442Z,96915.84
2022-09-25T16:27:24.543Z,96928.34
2022-09-25T16:31:27.801Z,96920.56
2022-09-25T16:36:04.521Z,96917.47
2022-09-25T16:40:13.968Z,96929.34
2022-09-25T16:44:19.511Z,96930.75
2022-09-25T16:48:37.787Z,96931.09
2022-09-25T16:52:43.470Z,96927.16
2022-09-25T16:56:48.445Z,96923.00
2022-09-25T17:00:52.669Z,96921.25
2022-09-25T17:04:55.931Z,96941.59
2022-09-25T17:09:01.638Z,96934.41
2022-09-25T17:13:06.024Z,96951.66
2022-09-25T17:17:11.638Z,96962.41
2022-09-25T17:21:17.564Z,96971.63
2022-09-25T17:25:27.448Z,96983.47
2022-09-25T17:29:31.830Z,96974.47
2022-09-25T17:33:35.268Z,96965.03
2022-09-25T17:37:38.644Z,96964.31
2022-09-25T17:41:43.633Z,96955.06
2022-09-25T17:45:49.656Z,96956.09
2022-09-25T17:49:52.870Z,96962.81
2022-09-25T17:53:56.711Z,96975.00
2022-09-25T17:58:02.117Z,96979.09
2022-09-25T18:02:07.475Z,96970.22
2022-09-25T18:06:11.197Z,96974.09
2022-09-25T18:10:15.829Z,96976.34
2022-09-25T18:14:20.648Z,96969.31
2022-09-25T18:18:25.092Z,96978.84
2022-09-25T18:22:27.934Z,96990.16
2022-09-25T18:26:31.963Z,97002.66
2022-09-25T18:30:38.798Z,96996.66
2022-09-25T18:34:41.911Z,97010.00
2022-09-25T18:38:45.450Z,97026.78
2022-09-25T18:42:50.432Z,97016.88
2022-09-25T18:46:56.019Z,97018.31
2022-09-25T18:51:00.547Z,97014.03
2022-09-25T18:55:05.510Z,97012.22
2022-09-25T18:59:11.363Z,97026.22
2022-09-25T19:03:16.931Z,97027.81
2022-09-25T19:07:24.861Z,97020.94
2022-09-25T19:11:40.063Z,97018.31
2022-09-25T19:15:51.309Z,97010.84
2022-09-25T19:19:59.859Z,96994.44
2022-09-25T19:24:06.659Z,97000.13
2022-09-25T19:28:10.581Z,97004.88
2022-09-25T19:32:16.382Z,97019.47
2022-09-25T19:36:24.623Z,97015.47
2022-09-25T19:40:40.696Z,97023.66
2022-09-25T19:44:44.301Z,97015.28
2022-09-25T19:48:48.847Z,97033.75
2022-09-25T19:52:55.234Z,97034.38
2022-09-25T19:57:00.056Z,97036.25
2022-09-25T20:01:04.037Z,97031.66
2022-09-25T20:05:09.492Z,97037.72
2022-09-25T20:09:15.075Z,97038.56
2022-09-25T20:13:18.228Z,97044.41
2022-09-25T20:17:21.732Z,97057.97
2022-09-25T20:21:25.843Z,97058.16
2022-09-25T20:25:30.745Z,97054.13
2022-09-25T20:29:34.126Z,97055.56
2022-09-25T20:33:38.015Z,97064.88
2022-09-25T20:37:41.940Z,97061.63
2022-09-25T20:41:46.722Z,97067.28
2022-09-25T20:45:57.458Z,97067.69
2022-09-25T20:50:01.148Z,97070.13
2022-09-25T20:54:07.067Z,97060.66
2022-09-25T20:58:11.641Z,97066.31
2022-09-25T21:02:15.384Z,97068.13
2022-09-25T21:06:20.486Z,97073.41
2022-09-25T21:10:24.102Z,97065.28
2022-09-25T21:14:30.384Z,97065.88
2022-09-25T21:18:36.612Z,97065.69
2022-09-25T21:22:40.768Z,97065.88
2022-09-25T21:26:44.508Z,97078.59
2022-09-25T21:30:48.992Z,97081.00
2022-09-25T21:34:52.083Z,97064.44
2022-09-25T21:38:55.428Z,97056.19
2022-09-25T21:42:59.135Z,97062.22
2022-09-25T21:47:04.136Z,97053.38
2022-09-25T21:51:09.286Z,97050.56
2022-09-25T21:55:12.692Z,97055.59
2022-09-25T21:59:17.038Z,97036.81
2022-09-25T22:03:21.772Z,97037.63
2022-09-25T22:07:25.329Z,97048.94
2022-09-25T22:11:29.733Z,97038.25
2022-09-25T22:15:32.718Z,97049.53
2022-09-25T22:19:37.978Z,97046.50
2022-09-25T22:23:41.498Z,97045.09
2022-09-25T22:27:44.912Z,97045.09
2022-09-25T22:31:48.647Z,97046.72
2022-09-25T22:36:02.174Z,97043.09
2022-09-25T22:40:06.137Z,97041.47
2022-09-25T22:44:09.650Z,97036.44
2022-09-25T22:48:12.663Z,97037.22
2022-09-25T22:52:17.452Z,97039.84
2022-09-25T22:56:22.639Z,97033.00
2022-09-25T23:00:25.736Z,97041.88
2022-09-25T23:04:29.287Z,97036.63
